createdAt,value
2023-04-09T00:01:31.039Z,12.78
2023-04-09T00:04:33.466Z,12.70
2023-04-09T00:07:35.981Z,12.78
2023-04-09T00:10:38.361Z,12.77
2023-04-09T00:13:40.768Z,12.78
2023-04-09T00:16:43.207Z,12.72
2023-04-09T00:19:45.654Z,12.76
2023-04-09T00:22:48.618Z,12.77
2023-04-09T00:25:51.202Z,12.74
2023-04-09T00:28:53.684Z,12.76
2023-04-09T00:31:56.203Z,12.76
2023-04-09T00:34:58.602Z,12.75
2023-04-09T00:38:01.141Z,12.76
2023-04-09T00:41:03.500Z,12.72
2023-04-09T00:44:05.965Z,12.73
2023-04-09T00:47:08.407Z,12.68
2023-04-09T00:50:11.134Z,12.70
2023-04-09T00:53:14.584Z,12.71
2023-04-09T00:56:17.663Z,12.72
2023-04-09T00:59:19.967Z,12.73
2023-04-09T01:02:22.553Z,12.72
2023-04-09T01:05:29.527Z,12.72
2023-04-09T01:08:59.352Z,12.70
2023-04-09T01:12:29.556Z,12.70
2023-04-09T01:15:36.387Z,12.68
2023-04-09T01:18:51.836Z,12.67
2023-04-09T01:21:56.548Z,12.71
2023-04-09T01:25:13.595Z,12.69
2023-04-09T01:28:22.893Z,12.66
2023-04-09T01:31:38.656Z,12.67
2023-04-09T01:34:41.941Z,12.64
2023-04-09T01:37:44.532Z,12.66
2023-04-09T01:40:47.471Z,12.67
2023-04-09T01:43:51.731Z,12.65
2023-04-09T01:46:55.579Z,12.67
2023-04-09T01:49:58.153Z,12.60
2023-04-09T01:53:01.708Z,12.61
2023-04-09T01:56:04.296Z,12.62
2023-04-09T01:59:06.658Z,12.63
2023-04-09T02:02:19.119Z,12.65
2023-04-09T02:05:27.113Z,12.64
2023-04-09T02:08:30.801Z,12.64
2023-04-09T02:11:33.861Z,12.61
2023-04-09T02:14:37.796Z,12.62
2023-04-09T02:17:40.551Z,12.59
2023-04-09T02:20:42.935Z,12.57
2023-04-09T02:23:45.270Z,12.64
2023-04-09T02:26:47.583Z,12.59
2023-04-09T02:29:50.802Z,12.57
2023-04-09T02:32:53.446Z,12.60
2023-04-09T02:35:55.869Z,12.60
2023-04-09T02:38:58.273Z,12.62
2023-04-09T02:42:01.389Z,12.55
2023-04-09T02:45:03.887Z,12.58
2023-04-09T02:48:08.287Z,12.56
2023-04-09T02:51:11.255Z,12.59
2023-04-09T02:54:13.604Z,12.60
2023-04-09T02:57:16.171Z,12.58
2023-04-09T03:00:18.536Z,12.53
2023-04-09T03:03:21.386Z,12.56
2023-04-09T03:06:23.890Z,12.58
2023-04-09T03:09:26.270Z,12.55
2023-04-09T03:12:28.554Z,12.54
2023-04-09T03:15:30.936Z,12.54
2023-04-09T03:18:33.321Z,12.56
2023-04-09T03:21:35.674Z,12.58
2023-04-09T03:24:37.987Z,12.57
2023-04-09T03:27:41.736Z,12.55
2023-04-09T03:30:45.393Z,12.52
2023-04-09T03:33:49.015Z,12.56
2023-04-09T03:36:51.496Z,12.56
2023-04-09T03:40:04.065Z,12.56
2023-04-09T03:43:07.286Z,12.54
2023-04-09T03:46:15.829Z,12.53
2023-04-09T03:49:20.794Z,12.50
2023-04-09T03:52:23.228Z,12.52
2023-04-09T03:55:34.349Z,12.44
2023-04-09T03:58:41.309Z,12.50
2023-04-09T04:01:45.408Z,12.52
2023-04-09T04:04:48.722Z,12.49
2023-04-09T04:07:52.168Z,12.51
2023-04-09T04:11:05.365Z,12.52
2023-04-09T04:14:08.722Z,12.51
2023-04-09T04:17:11.906Z,12.51
2023-04-09T04:20:15.032Z,12.52
2023-04-09T04:23:29.502Z,12.50
2023-04-09T04:26:45.418Z,12.48
2023-04-09T04:29:51.178Z,12.46
2023-04-09T04:33:08.935Z,12.51
2023-04-09T04:36:18.821Z,12.48
2023-04-09T04:39:27.127Z,12.51
2023-04-09T04:42:43.887Z,12.51
2023-04-09T04:45:51.347Z,12.51
2023-04-09T04:48:58.003Z,12.50
2023-04-09T04:52:00.710Z,12.47
2023-04-09T04:55:03.388Z,12.50
2023-04-09T04:58:05.955Z,12.47
2023-04-09T05:01:17.763Z,12.46
2023-04-09T05:04:20.502Z,12.51
2023-04-09T05:07:22.950Z,12.46
2023-04-09T05:10:28.837Z,12.49
2023-04-09T05:13:32.884Z,12.49
2023-04-09T05:16:37.978Z,12.54
2023-04-09T05:19:41.706Z,12.55
2023-04-09T05:22:45.389Z,12.53
2023-04-09T05:25:50.744Z,12.57
2023-04-09T05:29:02.709Z,12.57
2023-04-09T05:32:05.732Z,12.58
2023-04-09T05:35:12.350Z,12.59
2023-04-09T05:38:18.815Z,12.54
2023-04-09T05:41:28.458Z,12.60
2023-04-09T05:44:49.250Z,12.57
2023-04-09T05:47:55.171Z,12.58
2023-04-09T05:51:00.465Z,12.60
2023-04-09T05:54:04.185Z,12.65
2023-04-09T05:57:10.557Z,12.66
2023-04-09T06:00:16.732Z,12.70
2023-04-09T06:03:19.544Z,12.67
2023-04-09T06:06:22.249Z,12.73
2023-04-09T06:09:24.646Z,12.70
2023-04-09T06:12:26.993Z,12.74
2023-04-09T06:15:29.438Z,12.73
2023-04-09T06:18:31.878Z,12.77
2023-04-09T06:21:34.269Z,12.78
2023-04-09T06:24:36.893Z,12.79
2023-04-09T06:27:39.222Z,12.79
2023-04-09T06:30:41.820Z,12.78
2023-04-09T06:33:44.162Z,12.80
2023-04-09T06:36:46.522Z,12.82
2023-04-09T06:40:00.654Z,12.78
2023-04-09T06:43:03.998Z,12.88
2023-04-09T06:46:17.330Z,12.84
2023-04-09T06:49:19.733Z,12.86
2023-04-09T06:52:22.047Z,12.91
2023-04-09T06:55:24.507Z,12.91
2023-04-09T06:58:26.898Z,12.90
2023-04-09T07:01:29.285Z,12.94
2023-04-09T07:04:31.725Z,12.95
2023-04-09T07:07:34.170Z,12.96
2023-04-09T07:10:36.797Z,12.95
2023-04-09T07:13:39.213Z,13.06
2023-04-09T07:16:41.562Z,13.13
2023-04-09T07:19:43.939Z,13.21
2023-04-09T07:22:46.375Z,13.40
2023-04-09T07:25:48.740Z,13.57
2023-04-09T07:28:51.666Z,13.78
2023-04-09T07:31:54.153Z,13.97
2023-04-09T07:34:57.377Z,14.01
2023-04-09T07:37:59.801Z,14.20
2023-04-09T07:41:02.131Z,14.29
2023-04-09T07:44:06.409Z,14.30
2023-04-09T07:47:09.162Z,14.37
2023-04-09T07:50:12.321Z,14.36
2023-04-09T07:53:14.819Z,14.44
2023-04-09T07:56:17.221Z,14.39
2023-04-09T07:59:19.586Z,14.44
2023-04-09T08:02:23.293Z,14.45
2023-04-09T08:05:25.735Z,14.45
2023-04-09T08:08:28.162Z,14.46
2023-04-09T08:11:30.699Z,14.45
2023-04-09T08:14:33.165Z,14.45
2023-04-09T08:17:37.360Z,14.46
2023-04-09T08:20:45.165Z,14.43
2023-04-09T08:23:47.879Z,14.46
2023-04-09T08:26:50.438Z,14.45
2023-04-09T08:29:52.787Z,14.47
2023-04-09T08:32:55.207Z,14.49
2023-04-09T08:35:57.668Z,14.46
2023-04-09T08:39:00.708Z,14.41
2023-04-09T08:42:03.892Z,14.45
2023-04-09T08:45:06.998Z,14.46
2023-04-09T08:48:14.258Z,14.47
2023-04-09T08:51:18.222Z,14.46
2023-04-09T08:54:20.578Z,14.46
2023-04-09T08:57:22.991Z,14.46
2023-04-09T09:00:25.349Z,14.46
2023-04-09T09:03:27.787Z,14.41
2023-04-09T09:06:41.247Z,14.43
2023-04-09T09:09:58.001Z,14.44
2023-04-09T09:13:00.469Z,14.41
2023-04-09T09:16:13.946Z,14.43
2023-04-09T09:19:26.147Z,14.42
2023-04-09T09:22:28.606Z,14.39
2023-04-09T09:25:38.069Z,14.36
2023-04-09T09:28:40.436Z,14.38
2023-04-09T09:31:49.194Z,14.40
2023-04-09T09:34:59.576Z,14.40
2023-04-09T09:38:04.106Z,14.39
2023-04-09T09:41:19.617Z,14.39
2023-04-09T09:44:32.495Z,14.36
2023-04-09T09:47:34.924Z,14.35
2023-04-09T09:50:39.014Z,14.35
2023-04-09T09:53:45.914Z,14.36
2023-04-09T09:56:51.710Z,14.31
2023-04-09T09:59:56.817Z,14.39
2023-04-09T10:03:06.718Z,14.34
2023-04-09T10:06:09.355Z,14.35
2023-04-09T10:09:12.617Z,14.39
2023-04-09T10:12:15.037Z,14.34
2023-04-09T10:15:18.584Z,14.32
2023-04-09T10:18:21.384Z,14.45
2023-04-09T10:21:27.640Z,14.50
2023-04-09T10:24:30.640Z,14.51
2023-04-09T10:27:33.016Z,14.48
2023-04-09T10:30:36.764Z,14.50
2023-04-09T10:33:39.497Z,14.54
2023-04-09T10:36:45.963Z,14.56
2023-04-09T10:39:49.931Z,14.60
2023-04-09T10:42:52.945Z,14.57
2023-04-09T10:45:57.822Z,14.61
2023-04-09T10:49:13.834Z,14.63
2023-04-09T10:52:16.481Z,14.58
2023-04-09T10:55:40.930Z,14.63
2023-04-09T10:58:43.326Z,14.66
2023-04-09T11:01:53.638Z,14.61
2023-04-09T11:05:30.222Z,14.67
2023-04-09T11:08:33.832Z,14.68
2023-04-09T11:11:37.034Z,14.67
2023-04-09T11:14:39.433Z,14.65
2023-04-09T11:17:41.864Z,14.60
2023-04-09T11:20:44.487Z,14.64
2023-04-09T11:23:52.337Z,14.65
2023-04-09T11:26:55.131Z,14.60
2023-04-09T11:29:57.575Z,14.61
2023-04-09T11:33:00.943Z,14.56
2023-04-09T11:36:05.729Z,14.61
2023-04-09T11:39:08.149Z,14.61
2023-04-09T11:42:16.675Z,14.62
2023-04-09T11:45:20.535Z,14.64
2023-04-09T11:48:24.939Z,14.60
2023-04-09T11:51:28.232Z,14.56
2023-04-09T11:54:34.373Z,14.62
2023-04-09T11:57:44.872Z,14.60
2023-04-09T12:00:47.288Z,14.63
2023-04-09T12:03:54.585Z,14.62
2023-04-09T12:06:58.946Z,14.57
2023-04-09T12:10:06.614Z,14.52
2023-04-09T12:13:13.778Z,14.58
2023-04-09T12:16:19.628Z,14.58
2023-04-09T12:19:25.864Z,14.49
2023-04-09T12:22:28.201Z,14.55
2023-04-09T12:25:35.561Z,14.55
2023-04-09T12:28:56.202Z,14.58
2023-04-09T12:31:58.913Z,14.58
2023-04-09T12:35:01.503Z,14.60
2023-04-09T12:38:05.273Z,14.53
2023-04-09T12:41:08.042Z,14.60
2023-04-09T12:44:10.358Z,14.57
2023-04-09T12:47:13.396Z,14.52
2023-04-09T12:50:16.359Z,14.56
2023-04-09T12:53:18.837Z,14.52
2023-04-09T12:56:21.188Z,14.51
2023-04-09T12:59:23.561Z,14.54
2023-04-09T13:02:26.377Z,14.54
2023-04-09T13:05:28.984Z,14.52
2023-04-09T13:08:31.399Z,14.51
2023-04-09T13:11:33.696Z,14.50
2023-04-09T13:14:36.586Z,14.51
2023-04-09T13:17:38.986Z,14.50
2023-04-09T13:20:41.527Z,14.49
2023-04-09T13:23:44.024Z,14.42
2023-04-09T13:26:46.439Z,14.49
2023-04-09T13:29:48.798Z,14.50
2023-04-09T13:32:51.320Z,14.44
2023-04-09T13:35:53.932Z,14.44
2023-04-09T13:38:56.436Z,14.48
2023-04-09T13:41:59.217Z,14.45
2023-04-09T13:45:01.605Z,14.47
2023-04-09T13:48:04.214Z,14.39
2023-04-09T13:51:07.188Z,14.47
2023-04-09T13:54:11.268Z,14.48
2023-04-09T13:57:13.652Z,14.46
2023-04-09T14:00:16.399Z,14.47
2023-04-09T14:03:18.897Z,14.44
2023-04-09T14:06:21.379Z,14.46
2023-04-09T14:09:23.767Z,14.50
2023-04-09T14:12:26.266Z,14.51
2023-04-09T14:15:28.582Z,14.51
2023-04-09T14:18:30.936Z,14.44
2023-04-09T14:21:34.476Z,14.52
2023-04-09T14:24:40.187Z,14.56
2023-04-09T14:27:42.689Z,14.70
2023-04-09T14:30:45.140Z,14.90
2023-04-09T14:33:48.243Z,15.03
2023-04-09T14:36:50.614Z,15.25
2023-04-09T14:39:52.981Z,15.39
2023-04-09T14:42:55.354Z,15.51
2023-04-09T14:45:58.014Z,15.58
2023-04-09T14:49:00.378Z,15.67
2023-04-09T14:52:02.827Z,15.69
2023-04-09T14:55:05.671Z,15.65
2023-04-09T14:58:08.588Z,15.71
2023-04-09T15:01:11.161Z,15.69
2023-04-09T15:04:13.573Z,15.69
2023-04-09T15:07:16.109Z,15.68
2023-04-09T15:10:19.174Z,15.64
2023-04-09T15:13:21.560Z,15.64
2023-04-09T15:16:26.060Z,15.61
2023-04-09T15:19:28.518Z,15.59
2023-04-09T15:22:31.255Z,15.58
2023-04-09T15:25:33.630Z,15.53
2023-04-09T15:28:36.103Z,15.52
2023-04-09T15:31:40.864Z,15.48
2023-04-09T15:34:44.053Z,15.48
2023-04-09T15:37:46.400Z,15.39
2023-04-09T15:40:48.775Z,15.36
2023-04-09T15:43:51.884Z,15.40
2023-04-09T15:46:54.242Z,15.34
2023-04-09T15:49:59.126Z,15.27
2023-04-09T15:53:01.484Z,15.30
2023-04-09T15:56:05.516Z,15.27
2023-04-09T15:59:08.379Z,15.25
2023-04-09T16:02:11.152Z,15.21
2023-04-09T16:05:13.682Z,15.19
2023-04-09T16:08:16.150Z,15.16
2023-04-09T16:11:18.519Z,15.13
2023-04-09T16:14:21.297Z,15.11
2023-04-09T16:17:23.858Z,15.04
2023-04-09T16:20:26.235Z,15.02
2023-04-09T16:23:30.650Z,15.01
2023-04-09T16:26:33.273Z,14.97
2023-04-09T16:29:35.667Z,14.97
2023-04-09T16:32:38.073Z,14.88
2023-04-09T16:35:40.685Z,14.92
2023-04-09T16:38:43.083Z,14.89
2023-04-09T16:41:45.808Z,14.82
2023-04-09T16:44:48.183Z,14.86
2023-04-09T16:47:53.775Z,14.79
2023-04-09T16:50:56.428Z,14.81
2023-04-09T16:53:58.819Z,14.76
2023-04-09T16:57:02.624Z,14.78
2023-04-09T17:00:06.683Z,14.74
2023-04-09T17:03:09.129Z,14.68
2023-04-09T17:06:11.545Z,14.71
2023-04-09T17:09:13.913Z,14.68
2023-04-09T17:12:17.333Z,14.63
2023-04-09T17:15:19.675Z,14.66
2023-04-09T17:18:22.027Z,14.60
2023-04-09T17:21:24.402Z,14.57
2023-04-09T17:24:26.832Z,14.62
2023-04-09T17:27:29.250Z,14.58
2023-04-09T17:30:33.233Z,14.58
2023-04-09T17:33:35.664Z,14.53
2023-04-09T17:36:38.066Z,14.49
2023-04-09T17:39:41.067Z,14.46
2023-04-09T17:42:43.462Z,14.42
2023-04-09T17:45:46.104Z,14.37
2023-04-09T17:48:48.533Z,14.36
2023-04-09T17:51:50.878Z,14.36
2023-04-09T17:54:53.364Z,14.40
2023-04-09T17:57:55.727Z,14.40
2023-04-09T18:00:59.634Z,14.54
2023-04-09T18:04:02.227Z,14.68
2023-04-09T18:07:04.829Z,14.84
2023-04-09T18:10:07.687Z,15.06
2023-04-09T18:13:10.135Z,15.26
2023-04-09T18:16:12.793Z,15.39
2023-04-09T18:19:15.557Z,15.46
2023-04-09T18:22:17.983Z,15.57
2023-04-09T18:25:22.285Z,15.62
2023-04-09T18:28:24.787Z,15.66
2023-04-09T18:31:27.418Z,15.63
2023-04-09T18:34:29.835Z,15.63
2023-04-09T18:37:34.205Z,15.64
2023-04-09T18:40:43.693Z,15.62
2023-04-09T18:43:46.027Z,15.61
2023-04-09T18:46:48.503Z,15.54
2023-04-09T18:49:50.910Z,15.59
2023-04-09T18:52:53.218Z,15.57
2023-04-09T18:55:55.628Z,15.52
2023-04-09T18:58:58.143Z,15.50
2023-04-09T19:02:05.252Z,15.42
2023-04-09T19:05:08.469Z,15.41
2023-04-09T19:08:10.969Z,15.41
2023-04-09T19:11:14.415Z,15.38
2023-04-09T19:14:16.739Z,15.35
2023-04-09T19:17:19.063Z,15.34
2023-04-09T19:20:22.108Z,15.30
2023-04-09T19:23:24.740Z,15.29
2023-04-09T19:26:27.107Z,15.26
2023-04-09T19:29:29.430Z,15.19
2023-04-09T19:32:31.879Z,15.19
2023-04-09T19:35:35.901Z,15.20
2023-04-09T19:38:38.335Z,15.20
2023-04-09T19:41:40.768Z,15.15
2023-04-09T19:44:43.290Z,15.10
2023-04-09T19:47:45.684Z,15.11
2023-04-09T19:50:48.993Z,15.08
2023-04-09T19:53:51.672Z,15.03
2023-04-09T19:56:54.016Z,15.00
2023-04-09T19:59:56.547Z,14.97
2023-04-09T20:02:59.044Z,14.92
2023-04-09T20:06:06.656Z,14.82
2023-04-09T20:09:12.395Z,14.80
2023-04-09T20:12:14.797Z,14.76
2023-04-09T20:15:20.268Z,14.76
2023-04-09T20:18:22.667Z,14.67
2023-04-09T20:21:25.081Z,14.69
2023-04-09T20:24:28.271Z,14.66
2023-04-09T20:27:31.426Z,14.64
2023-04-09T20:30:33.751Z,14.67
2023-04-09T20:33:36.218Z,14.63
2023-04-09T20:36:42.190Z,14.59
2023-04-09T20:39:45.115Z,14.55
2023-04-09T20:42:47.549Z,14.51
2023-04-09T20:45:49.924Z,14.47
2023-04-09T20:48:52.389Z,14.40
2023-04-09T20:51:55.195Z,14.40
2023-04-09T20:54:57.740Z,14.33
2023-04-09T20:58:00.337Z,14.34
2023-04-09T21:01:07.730Z,14.32
2023-04-09T21:04:10.397Z,14.25
2023-04-09T21:07:12.912Z,14.21
2023-04-09T21:10:15.591Z,14.20
2023-04-09T21:13:17.918Z,14.08
2023-04-09T21:16:20.459Z,14.14
2023-04-09T21:19:22.949Z,14.05
2023-04-09T21:22:26.785Z,14.09
2023-04-09T21:25:29.470Z,14.04
2023-04-09T21:28:32.053Z,14.03
2023-04-09T21:31:35.686Z,14.01
2023-04-09T21:34:39.572Z,14.00
2023-04-09T21:37:41.978Z,14.04
2023-04-09T21:40:46.308Z,14.15
2023-04-09T21:43:48.657Z,14.27
2023-04-09T21:46:50.974Z,14.45
2023-04-09T21:49:53.379Z,14.63
2023-04-09T21:52:56.278Z,14.80
2023-04-09T21:55:58.622Z,15.04
2023-04-09T21:59:01.421Z,15.19
2023-04-09T22:02:04.897Z,15.31
2023-04-09T22:05:07.647Z,15.40
2023-04-09T22:08:10.151Z,15.45
2023-04-09T22:11:12.596Z,15.42
2023-04-09T22:14:16.607Z,15.42
2023-04-09T22:17:18.989Z,15.36
2023-04-09T22:20:21.433Z,15.43
2023-04-09T22:23:23.835Z,15.43
2023-04-09T22:26:26.654Z,15.42
2023-04-09T22:29:30.678Z,15.42
2023-04-09T22:32:35.943Z,15.35
2023-04-09T22:35:38.351Z,15.31
2023-04-09T22:38:40.690Z,15.29
2023-04-09T22:41:43.171Z,15.33
2023-04-09T22:44:45.544Z,15.30
2023-04-09T22:47:47.928Z,15.21
2023-04-09T22:50:50.968Z,15.22
2023-04-09T22:53:53.309Z,15.24
2023-04-09T22:56:57.489Z,15.15
2023-04-09T22:59:59.906Z,15.16
2023-04-09T23:03:02.314Z,15.09
2023-04-09T23:06:05.131Z,15.03
2023-04-09T23:09:07.448Z,14.99
2023-04-09T23:12:09.790Z,14.94
2023-04-09T23:15:12.246Z,14.87
2023-04-09T23:18:14.710Z,14.81
2023-04-09T23:21:17.022Z,14.73
2023-04-09T23:24:19.406Z,14.69
2023-04-09T23:27:28.213Z,14.66
2023-04-09T23:30:31.641Z,14.63
2023-04-09T23:33:34.528Z,14.56
2023-04-09T23:36:36.855Z,14.49
2023-04-09T23:39:39.259Z,14.45
2023-04-09T23:42:41.557Z,14.45
2023-04-09T23:45:44.421Z,14.37
2023-04-09T23:48:46.808Z,14.44
2023-04-09T23:51:51.200Z,14.36
2023-04-09T23:54:54.143Z,14.31
2023-04-09T23:57:56.894Z,14.23
